createdAt,value
2022-11-07T00:02:05.925Z,6.90
2022-11-07T00:04:34.051Z,6.80
2022-11-07T00:07:02.071Z,7.35
2022-11-07T00:09:29.662Z,8.25
2022-11-07T00:11:57.541Z,9.00
2022-11-07T00:14:25.563Z,9.25
2022-11-07T00:16:53.620Z,9.05
2022-11-07T00:19:22.421Z,7.82
2022-11-07T00:21:50.166Z,10.43
2022-11-07T00:24:18.595Z,9.88
2022-11-07T00:26:46.947Z,15.30
2022-11-07T00:29:20.262Z,31.63
2022-11-07T00:31:48.700Z,16.95
2022-11-07T00:34:16.624Z,8.07
2022-11-07T00:36:44.224Z,7.78
2022-11-07T00:39:12.154Z,9.48
2022-11-07T00:41:39.632Z,10.10
2022-11-07T00:44:07.200Z,10.43
2022-11-07T00:46:34.777Z,9.23
2022-11-07T00:49:02.302Z,7.80
2022-11-07T00:51:29.802Z,7.30
2022-11-07T00:53:57.543Z,7.88
2022-11-07T00:56:25.881Z,8.00
2022-11-07T00:58:57.143Z,9.02
2022-11-07T01:01:31.406Z,7.60
2022-11-07T01:04:17.733Z,8.52
2022-11-07T01:06:46.379Z,7.38
2022-11-07T01:09:22.042Z,8.75
2022-11-07T01:11:49.993Z,9.43
2022-11-07T01:14:20.127Z,9.60
2022-11-07T01:16:47.690Z,7.25
2022-11-07T01:19:15.379Z,8.73
2022-11-07T01:21:43.426Z,7.88
2022-11-07T01:24:12.701Z,7.40
2022-11-07T01:26:41.709Z,7.97
2022-11-07T01:29:09.855Z,8.73
2022-11-07T01:31:37.425Z,8.07
2022-11-07T01:34:05.312Z,8.60
2022-11-07T01:36:33.002Z,8.27
2022-11-07T01:39:00.575Z,6.40
2022-11-07T01:41:31.317Z,5.90
2022-11-07T01:44:02.934Z,7.15
2022-11-07T01:46:34.238Z,6.72
2022-11-07T01:49:04.499Z,6.38
2022-11-07T01:51:37.155Z,5.80
2022-11-07T01:54:06.332Z,8.20
2022-11-07T01:56:37.189Z,6.15
2022-11-07T01:59:06.054Z,7.50
2022-11-07T02:01:33.887Z,5.47
2022-11-07T02:04:02.213Z,8.18
2022-11-07T02:06:55.685Z,6.55
2022-11-07T02:09:23.220Z,5.30
2022-11-07T02:11:51.736Z,6.43
2022-11-07T02:14:19.792Z,5.43
2022-11-07T02:16:49.798Z,5.10
2022-11-07T02:19:36.312Z,5.55
2022-11-07T02:22:40.652Z,5.43
2022-11-07T02:25:12.510Z,5.13
2022-11-07T02:27:41.909Z,6.68
2022-11-07T02:30:16.099Z,4.68
2022-11-07T02:32:44.355Z,5.65
2022-11-07T02:35:36.458Z,7.18
2022-11-07T02:38:27.956Z,6.15
2022-11-07T02:41:13.575Z,7.07
2022-11-07T02:43:52.773Z,6.25
2022-11-07T02:46:22.833Z,5.88
2022-11-07T02:48:54.606Z,5.78
2022-11-07T02:51:22.138Z,6.53
2022-11-07T02:53:49.701Z,5.72
2022-11-07T02:56:18.097Z,6.50
2022-11-07T02:58:48.636Z,6.95
2022-11-07T03:01:18.871Z,5.97
2022-11-07T03:03:48.960Z,7.88
2022-11-07T03:06:19.697Z,6.30
2022-11-07T03:08:47.731Z,6.47
2022-11-07T03:11:20.939Z,6.35
2022-11-07T03:13:49.829Z,6.18
2022-11-07T03:16:18.821Z,9.18
2022-11-07T03:18:46.421Z,6.95
2022-11-07T03:21:14.371Z,8.25
2022-11-07T03:23:41.915Z,7.82
2022-11-07T03:26:09.488Z,6.40
2022-11-07T03:28:37.056Z,6.72
2022-11-07T03:31:05.210Z,9.07
2022-11-07T03:33:32.768Z,5.57
2022-11-07T03:36:00.409Z,7.55
2022-11-07T03:38:28.145Z,7.68
2022-11-07T03:40:55.693Z,10.10
2022-11-07T03:43:24.412Z,8.75
2022-11-07T03:45:51.984Z,8.45
2022-11-07T03:48:19.454Z,6.70
2022-11-07T03:50:47.078Z,6.53
2022-11-07T03:53:16.458Z,10.93
2022-11-07T03:55:46.889Z,6.32
2022-11-07T03:58:14.483Z,8.40
2022-11-07T04:00:42.601Z,7.45
2022-11-07T04:03:10.284Z,7.47
2022-11-07T04:05:37.900Z,6.70
2022-11-07T04:08:05.834Z,11.45
2022-11-07T04:10:33.624Z,9.18
2022-11-07T04:13:19.882Z,10.10
2022-11-07T04:16:06.177Z,8.18
2022-11-07T04:18:35.978Z,9.40
2022-11-07T04:21:03.419Z,8.57
2022-11-07T04:23:31.109Z,10.95
2022-11-07T04:26:17.506Z,9.52
2022-11-07T04:28:45.150Z,11.05
2022-11-07T04:31:12.670Z,9.40
2022-11-07T04:33:40.211Z,10.40
2022-11-07T04:36:08.205Z,10.50
2022-11-07T04:38:35.952Z,9.73
2022-11-07T04:41:04.745Z,10.48
2022-11-07T04:43:32.418Z,8.85
2022-11-07T04:45:59.889Z,9.45
2022-11-07T04:48:27.426Z,11.02
2022-11-07T04:50:54.979Z,10.27
2022-11-07T04:53:22.425Z,9.00
2022-11-07T04:55:49.904Z,9.35
2022-11-07T04:58:17.964Z,10.05
2022-11-07T05:00:45.648Z,10.23
2022-11-07T05:03:13.628Z,8.45
2022-11-07T05:05:41.426Z,10.35
2022-11-07T05:08:09.069Z,8.77
2022-11-07T05:10:36.784Z,8.73
2022-11-07T05:13:04.230Z,9.30
2022-11-07T05:15:31.717Z,9.80
2022-11-07T05:17:59.201Z,11.60
2022-11-07T05:20:32.559Z,11.35
2022-11-07T05:23:13.575Z,16.35
2022-11-07T05:25:49.736Z,11.60
2022-11-07T05:28:33.675Z,11.60
2022-11-07T05:31:06.169Z,8.57
2022-11-07T05:33:34.342Z,10.25
2022-11-07T05:36:34.190Z,10.93
2022-11-07T05:39:01.737Z,10.35
2022-11-07T05:41:29.294Z,10.32
2022-11-07T05:43:59.842Z,9.60
2022-11-07T05:46:27.327Z,11.95
2022-11-07T05:48:59.739Z,9.98
2022-11-07T05:51:28.539Z,11.35
2022-11-07T05:53:56.065Z,9.15
2022-11-07T05:56:23.646Z,12.82
2022-11-07T05:58:51.236Z,12.48
2022-11-07T06:01:18.863Z,8.93
2022-11-07T06:03:46.441Z,9.35
2022-11-07T06:06:13.933Z,8.68
2022-11-07T06:08:41.473Z,9.43
2022-11-07T06:11:11.600Z,9.48
2022-11-07T06:13:39.129Z,11.57
2022-11-07T06:16:06.892Z,9.43
2022-11-07T06:18:41.419Z,8.90
2022-11-07T06:21:09.255Z,8.00
2022-11-07T06:23:36.836Z,9.15
2022-11-07T06:26:04.391Z,9.35
2022-11-07T06:28:32.006Z,10.05
2022-11-07T06:31:00.718Z,10.07
2022-11-07T06:34:24.264Z,9.60
2022-11-07T06:51:55.296Z,16.92
2022-11-07T06:55:25.617Z,10.90
2022-11-07T07:05:25.210Z,12.82
2022-11-07T07:08:02.023Z,12.32
2022-11-07T07:10:37.205Z,8.67
2022-11-07T07:13:05.114Z,10.50
2022-11-07T07:15:49.871Z,11.30
2022-11-07T07:18:20.064Z,11.98
2022-11-07T07:20:49.295Z,8.27
2022-11-07T07:23:18.780Z,8.85
2022-11-07T07:25:47.513Z,9.18
2022-11-07T07:28:15.219Z,11.32
2022-11-07T07:30:47.206Z,7.90
2022-11-07T07:33:18.536Z,10.07
2022-11-07T07:35:49.087Z,9.13
2022-11-07T07:38:23.862Z,9.90
2022-11-07T07:40:53.872Z,8.45
2022-11-07T07:43:21.367Z,11.25
2022-11-07T07:46:02.560Z,8.30
2022-11-07T07:48:31.270Z,7.00
2022-11-07T07:50:59.697Z,9.32
2022-11-07T07:53:32.883Z,5.55
2022-11-07T07:56:02.814Z,5.28
2022-11-07T07:58:30.287Z,5.40
2022-11-07T08:00:58.048Z,5.85
2022-11-07T08:03:32.175Z,5.35
2022-11-07T08:06:07.709Z,7.63
2022-11-07T08:08:38.192Z,4.90
2022-11-07T08:11:09.966Z,6.20
2022-11-07T08:13:37.439Z,4.28
2022-11-07T08:16:07.827Z,4.30
2022-11-07T08:18:40.069Z,4.35
2022-11-07T08:21:08.168Z,4.38
2022-11-07T08:23:36.162Z,7.72
2022-11-07T08:26:04.697Z,4.35
2022-11-07T08:28:35.441Z,7.22
2022-11-07T08:31:12.009Z,6.00
2022-11-07T08:33:40.102Z,5.70
2022-11-07T08:36:08.150Z,7.97
2022-11-07T08:38:36.221Z,5.28
2022-11-07T08:41:05.698Z,5.43
2022-11-07T08:43:33.289Z,7.90
2022-11-07T08:46:00.829Z,7.22
2022-11-07T08:48:28.453Z,6.53
2022-11-07T08:50:57.873Z,6.68
2022-11-07T08:53:27.124Z,6.03
2022-11-07T08:56:04.608Z,6.03
2022-11-07T08:58:32.947Z,6.95
2022-11-07T09:01:01.072Z,5.57
2022-11-07T09:03:45.227Z,9.27
2022-11-07T09:06:14.388Z,7.07
2022-11-07T09:08:41.971Z,5.63
2022-11-07T09:11:09.736Z,11.73
2022-11-07T09:13:37.385Z,9.35
2022-11-07T09:16:05.719Z,6.65
2022-11-07T09:18:33.620Z,5.90
2022-11-07T09:21:01.217Z,6.22
2022-11-07T09:23:28.925Z,6.35
2022-11-07T09:26:00.534Z,6.03
2022-11-07T09:28:28.808Z,5.72
2022-11-07T09:30:57.988Z,6.47
2022-11-07T09:33:26.266Z,5.90
2022-11-07T09:35:54.146Z,5.22
2022-11-07T09:38:21.783Z,7.35
2022-11-07T09:41:08.062Z,6.15
2022-11-07T09:43:35.675Z,6.07
2022-11-07T09:46:26.926Z,5.65
2022-11-07T09:49:00.880Z,6.35
2022-11-07T09:51:37.810Z,8.03
2022-11-07T09:54:15.144Z,6.22
2022-11-07T09:56:43.997Z,7.18
2022-11-07T09:59:34.030Z,7.07
2022-11-07T10:02:01.662Z,6.25
2022-11-07T10:04:29.252Z,7.85
2022-11-07T10:07:04.106Z,6.03
2022-11-07T10:09:55.775Z,6.50
2022-11-07T10:12:47.919Z,7.53
2022-11-07T10:15:39.532Z,7.10
2022-11-07T10:18:50.707Z,7.70
2022-11-07T10:21:39.496Z,7.82
2022-11-07T10:24:37.779Z,9.43
2022-11-07T10:27:10.456Z,9.63
2022-11-07T10:29:52.500Z,7.53
2022-11-07T10:32:35.865Z,7.32
2022-11-07T10:35:26.811Z,9.18
2022-11-07T10:38:00.417Z,9.63
2022-11-07T10:40:36.186Z,9.07
2022-11-07T10:43:07.728Z,7.90
2022-11-07T10:45:37.409Z,10.48
2022-11-07T10:48:05.791Z,8.45
2022-11-07T10:50:33.492Z,11.05
2022-11-07T10:53:05.546Z,9.30
2022-11-07T10:55:43.821Z,9.80
2022-11-07T10:58:21.695Z,9.52
2022-11-07T11:01:09.649Z,10.23
2022-11-07T11:03:45.355Z,9.18
2022-11-07T11:06:19.072Z,9.63
2022-11-07T11:08:48.148Z,10.52
2022-11-07T11:11:21.396Z,9.38
2022-11-07T11:13:49.392Z,9.30
2022-11-07T11:16:28.403Z,11.40
2022-11-07T11:19:01.179Z,11.82
2022-11-07T11:21:46.411Z,13.90
2022-11-07T11:24:23.690Z,10.52
2022-11-07T11:26:52.548Z,9.38
2022-11-07T11:29:27.090Z,13.27
2022-11-07T11:31:57.358Z,9.47
2022-11-07T11:34:58.609Z,10.05
2022-11-07T11:37:29.262Z,9.93
2022-11-07T11:40:09.412Z,10.15
2022-11-07T11:43:00.717Z,9.60
2022-11-07T11:45:39.972Z,9.70
2022-11-07T11:48:22.625Z,11.68
2022-11-07T11:50:54.300Z,11.38
2022-11-07T11:53:22.784Z,13.32
2022-11-07T11:56:25.514Z,13.07
2022-11-07T11:59:11.572Z,11.68
2022-11-07T12:01:47.515Z,12.23
2022-11-07T12:04:30.015Z,10.48
2022-11-07T12:07:32.773Z,11.70
2022-11-07T12:10:07.425Z,10.75
2022-11-07T12:13:09.640Z,9.63
2022-11-07T12:15:44.203Z,9.82
2022-11-07T12:18:41.408Z,11.80
2022-11-07T12:21:27.543Z,11.65
2022-11-07T12:24:16.452Z,10.80
2022-11-07T12:27:09.717Z,12.60
2022-11-07T12:29:55.508Z,11.55
2022-11-07T12:35:07.602Z,12.00
2022-11-07T12:38:19.946Z,12.20
2022-11-07T12:41:15.007Z,11.48
2022-11-07T12:43:42.571Z,11.68
2022-11-07T12:46:30.481Z,10.73
2022-11-07T12:48:57.960Z,11.30
2022-11-07T12:52:03.908Z,12.13
2022-11-07T12:54:49.695Z,11.82
2022-11-07T12:59:57.368Z,12.40
2022-11-07T13:02:37.817Z,12.07
2022-11-07T13:05:23.461Z,11.70
2022-11-07T13:08:00.457Z,11.38
2022-11-07T13:10:35.941Z,15.13
2022-11-07T13:13:07.285Z,11.75
2022-11-07T13:16:00.906Z,13.52
2022-11-07T13:18:27.826Z,13.13
2022-11-07T13:21:07.200Z,13.60
2022-11-07T13:23:34.749Z,13.57
2022-11-07T13:26:25.867Z,13.35
2022-11-07T13:29:01.239Z,10.98
2022-11-07T13:31:35.288Z,16.45
2022-11-07T13:34:25.246Z,13.32
2022-11-07T13:37:00.436Z,11.60
2022-11-07T13:39:30.009Z,13.77
2022-11-07T13:41:59.455Z,12.38
2022-11-07T13:44:32.416Z,12.50
2022-11-07T13:47:05.291Z,13.10
2022-11-07T13:49:44.491Z,12.18
2022-11-07T13:52:37.672Z,13.15
2022-11-07T13:55:11.210Z,13.68
2022-11-07T13:57:42.656Z,14.90
2022-11-07T14:00:14.955Z,14.20
2022-11-07T14:02:52.957Z,12.20
2022-11-07T14:05:36.256Z,13.70
2022-11-07T14:08:17.730Z,13.85
2022-11-07T14:10:47.854Z,13.52
2022-11-07T14:13:26.841Z,13.23
2022-11-07T14:15:58.797Z,16.67
2022-11-07T14:18:30.006Z,12.93
2022-11-07T14:20:59.112Z,12.73
2022-11-07T14:23:30.093Z,12.68
2022-11-07T14:26:16.867Z,13.30
2022-11-07T14:28:44.450Z,14.32
2022-11-07T14:31:29.660Z,12.02
2022-11-07T14:34:02.280Z,13.60
2022-11-07T14:36:31.419Z,14.40
2022-11-07T14:39:11.435Z,15.82
2022-11-07T14:41:44.769Z,14.43
2022-11-07T14:44:18.790Z,15.15
2022-11-07T14:46:47.696Z,14.43
2022-11-07T14:49:26.287Z,14.90
2022-11-07T14:51:55.749Z,14.98
2022-11-07T14:54:31.421Z,14.52
2022-11-07T14:57:00.370Z,15.73
2022-11-07T14:59:33.403Z,17.33
2022-11-07T15:02:13.556Z,14.95
2022-11-07T15:04:46.756Z,12.88
2022-11-07T15:07:35.428Z,13.77
2022-11-07T15:10:17.370Z,17.38
2022-11-07T15:12:56.286Z,14.40
2022-11-07T15:15:32.185Z,14.63
2022-11-07T15:18:03.084Z,16.85
2022-11-07T15:20:30.586Z,15.13
2022-11-07T15:22:59.189Z,14.13
2022-11-07T15:25:39.066Z,16.33
2022-11-07T15:28:18.882Z,14.45
2022-11-07T15:30:47.851Z,15.43
2022-11-07T15:33:21.670Z,15.23
2022-11-07T15:35:54.657Z,16.05
2022-11-07T15:38:27.939Z,15.73
2022-11-07T15:40:55.802Z,17.50
2022-11-07T15:43:23.550Z,17.52
2022-11-07T15:45:53.481Z,15.88
2022-11-07T15:48:24.135Z,16.90
2022-11-07T15:50:51.927Z,14.38
2022-11-07T15:53:27.709Z,14.52
2022-11-07T15:55:59.027Z,16.38
2022-11-07T15:58:29.461Z,15.63
2022-11-07T16:01:01.683Z,18.20
2022-11-07T16:03:29.559Z,16.95
2022-11-07T16:06:03.176Z,13.60
2022-11-07T16:08:33.533Z,16.30
2022-11-07T16:11:02.428Z,17.30
2022-11-07T16:13:30.128Z,14.52
2022-11-07T16:16:00.885Z,15.00
2022-11-07T16:18:35.081Z,16.35
2022-11-07T16:21:02.643Z,14.20
2022-11-07T16:23:30.234Z,16.00
2022-11-07T16:25:58.494Z,17.45
2022-11-07T16:28:30.634Z,18.65
2022-11-07T16:30:59.228Z,19.23
2022-11-07T16:33:27.679Z,21.90
2022-11-07T16:35:58.596Z,20.50
2022-11-07T16:38:31.334Z,20.50
2022-11-07T16:43:39.744Z,21.13
2022-11-07T16:46:17.404Z,20.25
2022-11-07T16:48:47.045Z,23.08
2022-11-07T16:51:16.287Z,22.77
2022-11-07T16:53:44.632Z,21.33
2022-11-07T16:56:22.327Z,19.83
2022-11-07T16:58:50.382Z,25.48
2022-11-07T17:01:18.105Z,25.40
2022-11-07T17:03:45.801Z,29.70
2022-11-07T17:06:31.740Z,30.23
2022-11-07T17:11:38.409Z,42.42
2022-11-07T17:14:05.995Z,44.38
2022-11-07T17:16:36.740Z,44.22
2022-11-07T17:19:05.573Z,38.53
2022-11-07T17:21:40.727Z,36.67
2022-11-07T17:24:08.546Z,36.53
2022-11-07T17:26:38.962Z,39.03
2022-11-07T17:29:21.284Z,37.50
2022-11-07T17:31:48.918Z,32.92
2022-11-07T17:34:16.496Z,30.13
2022-11-07T17:36:47.672Z,32.38
2022-11-07T17:39:18.046Z,31.38
2022-11-07T17:41:47.737Z,29.35
2022-11-07T17:44:18.769Z,37.08
2022-11-07T17:46:48.456Z,45.78
2022-11-07T17:49:18.792Z,35.38
2022-11-07T17:51:46.448Z,40.22
2022-11-07T17:54:15.426Z,42.30
2022-11-07T17:56:43.275Z,42.15
2022-11-07T17:59:17.843Z,40.88
2022-11-07T18:01:45.861Z,39.17
2022-11-07T18:04:14.008Z,39.65
2022-11-07T18:06:43.221Z,40.58
2022-11-07T18:09:14.674Z,37.28
2022-11-07T18:11:45.815Z,34.13
2022-11-07T18:14:14.642Z,36.53
2022-11-07T18:16:42.708Z,39.83
2022-11-07T18:19:11.148Z,34.22
2022-11-07T18:21:39.144Z,32.33
2022-11-07T18:24:07.119Z,29.35
2022-11-07T18:26:36.927Z,29.52
2022-11-07T18:29:07.450Z,29.25
2022-11-07T18:31:35.408Z,26.77
2022-11-07T18:34:06.630Z,29.92
2022-11-07T18:36:38.243Z,30.17
2022-11-07T18:39:08.756Z,29.05
2022-11-07T18:41:36.251Z,32.72
2022-11-07T18:44:05.258Z,26.25
2022-11-07T18:46:33.329Z,24.73
2022-11-07T18:49:00.883Z,29.67
2022-11-07T18:51:28.562Z,24.95
2022-11-07T18:53:56.286Z,23.48
2022-11-07T18:56:23.752Z,28.13
2022-11-07T18:58:51.461Z,24.98
2022-11-07T19:01:26.634Z,24.38
2022-11-07T19:03:56.022Z,25.13
2022-11-07T19:06:25.720Z,26.30
2022-11-07T19:08:53.405Z,27.15
2022-11-07T19:11:28.803Z,25.73
2022-11-07T19:13:59.734Z,24.10
2022-11-07T19:16:32.896Z,26.92
2022-11-07T19:19:00.402Z,24.80
2022-11-07T19:21:27.957Z,25.15
2022-11-07T19:23:55.515Z,22.50
2022-11-07T19:26:24.834Z,25.00
2022-11-07T19:28:54.145Z,21.70
2022-11-07T19:31:21.718Z,25.10
2022-11-07T19:33:49.276Z,23.08
2022-11-07T19:36:20.061Z,24.52
2022-11-07T19:38:48.638Z,23.40
2022-11-07T19:41:17.809Z,22.73
2022-11-07T19:43:49.986Z,25.38
2022-11-07T19:46:20.480Z,28.25
2022-11-07T19:48:49.116Z,23.60
2022-11-07T19:51:22.218Z,23.73
2022-11-07T19:53:58.285Z,25.73
2022-11-07T19:58:55.160Z,23.08
2022-11-07T20:01:26.008Z,28.30
2022-11-07T20:03:54.945Z,23.30
2022-11-07T20:06:25.944Z,21.58
2022-11-07T20:08:53.823Z,21.77
2022-11-07T20:11:24.044Z,26.00
2022-11-07T20:13:52.937Z,22.45
2022-11-07T20:16:21.108Z,23.52
2022-11-07T20:18:48.816Z,22.92
2022-11-07T20:21:23.077Z,20.65
2022-11-07T20:23:53.826Z,23.88
2022-11-07T20:26:23.262Z,21.00
2022-11-07T20:28:51.368Z,21.88
2022-11-07T20:31:21.681Z,23.00
2022-11-07T20:33:49.580Z,23.33
2022-11-07T20:36:18.130Z,28.10
2022-11-07T20:38:45.715Z,21.00
2022-11-07T20:41:14.486Z,26.02
2022-11-07T20:43:44.448Z,25.30
2022-11-07T20:46:15.101Z,22.45
2022-11-07T20:48:43.397Z,27.00
2022-11-07T20:51:16.710Z,22.73
2022-11-07T20:53:49.719Z,25.05
2022-11-07T20:56:25.094Z,23.85
2022-11-07T20:58:53.949Z,26.13
2022-11-07T21:01:25.109Z,26.85
2022-11-07T21:03:53.119Z,23.88
2022-11-07T21:06:20.858Z,23.77
2022-11-07T21:08:50.298Z,23.70
2022-11-07T21:11:18.118Z,20.20
2022-11-07T21:13:52.444Z,21.73
2022-11-07T21:16:22.087Z,21.00
2022-11-07T21:18:51.103Z,19.88
2022-11-07T21:21:27.610Z,20.63
2022-11-07T21:23:57.384Z,19.52
2022-11-07T21:26:31.771Z,21.58
2022-11-07T21:29:00.363Z,25.25
2022-11-07T21:31:31.326Z,19.67
2022-11-07T21:33:59.442Z,21.65
2022-11-07T21:36:29.422Z,20.52
2022-11-07T21:38:58.391Z,21.35
2022-11-07T21:41:26.583Z,19.15
2022-11-07T21:43:54.036Z,19.95
2022-11-07T21:46:27.345Z,21.40
2022-11-07T21:48:55.907Z,19.63
2022-11-07T21:51:23.276Z,20.40
2022-11-07T21:53:51.377Z,20.70
2022-11-07T21:56:24.926Z,20.00
2022-11-07T21:58:54.808Z,19.05
2022-11-07T22:01:22.847Z,18.42
2022-11-07T22:04:06.133Z,18.38
2022-11-07T22:06:36.653Z,19.92
2022-11-07T22:09:06.099Z,19.15
2022-11-07T22:11:33.746Z,18.70
2022-11-07T22:14:01.262Z,19.45
2022-11-07T22:16:29.031Z,17.67
2022-11-07T22:18:56.453Z,18.10
2022-11-07T22:21:23.980Z,21.02
2022-11-07T22:23:51.611Z,19.88
2022-11-07T22:26:21.719Z,17.52
2022-11-07T22:28:50.251Z,19.13
2022-11-07T22:31:27.046Z,17.40
2022-11-07T22:33:55.131Z,21.42
2022-11-07T22:36:23.517Z,15.95
2022-11-07T22:38:51.690Z,16.92
2022-11-07T22:41:21.865Z,16.73
2022-11-07T22:43:50.366Z,19.52
2022-11-07T22:46:20.767Z,16.23
2022-11-07T22:48:49.508Z,14.95
2022-11-07T22:51:23.197Z,15.57
2022-11-07T22:54:02.332Z,16.38
2022-11-07T22:56:30.975Z,16.65
2022-11-07T22:58:59.192Z,16.77
2022-11-07T23:01:29.942Z,16.45
2022-11-07T23:03:58.760Z,19.05
2022-11-07T23:06:28.634Z,14.10
2022-11-07T23:08:57.879Z,14.65
2022-11-07T23:14:18.710Z,14.88
2022-11-07T23:16:51.524Z,15.00
2022-11-07T23:19:21.656Z,14.32
2022-11-07T23:21:53.524Z,14.23
2022-11-07T23:24:21.290Z,13.98
2022-11-07T23:26:49.442Z,16.95
2022-11-07T23:29:20.043Z,11.02
2022-11-07T23:31:49.788Z,14.75
2022-11-07T23:34:19.167Z,16.30
2022-11-07T23:36:46.626Z,12.95
2022-11-07T23:39:16.590Z,14.52
2022-11-07T23:41:44.566Z,13.23
2022-11-07T23:44:12.801Z,14.85
2022-11-07T23:46:59.439Z,15.77
2022-11-07T23:49:55.622Z,18.35
2022-11-07T23:52:23.114Z,14.23
2022-11-07T23:55:08.800Z,19.17
2022-11-07T23:57:57.247Z,19.85
